KBTV/BTV METAR and TAF weather

Enter ICAO airport designator
Station Type Date Time Source
KBTV METAR 2024/05/28 21:54 UTC NOAA

KBTV 282154Z 30012G20KT 10SM SCT050 BKN065 BKN080 21/13 A2966 RMK AO2 RAE2056 SLP043 P0000 T02060133


Station Type Date Time Source
KBTV Decoded METAR 2024/05/28 21:54 UTC NOAA

BURLINGTON INTERNATIONAL, VT, United States (KBTV) 44-28N 73-09W 105M
May 28, 2024 - 05:54 PM EDT / 2024.05.28 2154 UTC
Wind: from the WNW (300 degrees) at 14 MPH (12 KT) gusting to 23 MPH (20 KT):0
Visibility: 10 mile(s):0
Sky conditions: mostly cloudy
Precipitation last hour: A trace
Temperature: 69.1 F (20.6 C)
Dew Point: 55.9 F (13.3 C)
Relative Humidity: 62%
Pressure (altimeter): 29.66 in. Hg (1004 hPa)
ob: KBTV 282154Z 30012G20KT 10SM SCT050 BKN065 BKN080 21/13 A2966 RMK AO2 RAE2056 SLP043 P0000 T02060133
cycle: 22

Station Type Date Time Source
KBTV TAF 2024/05/28 18:34 UTC NOAA